Hovedside
METAR-TAF:

METAR-TAF

Lufthavner :

Jämsä, Finland

Halli lufthavn

breddegrad: 61-51N, lengdegrad: 024-48E, høyde over havet: 143 m

Gjeldene værobservasjon

Denne rapporten ble laget for 39 minutter siden, klokken 07:50 UTC
Vind 2 kt fra Nordøst
Temperatur -12°C
Luftfuktighet 92%
Trykk 1010 hPa
Sikt: 5000 m
Brutte skyer i en høyde av 2900 ft
lett snø

METAR: EFHA 220750Z 05002KT 5000 -SN BKN029 M12/M13 Q1010

Tid: 10:29 (08:29 UTC)

Varsel

Denne rapporten ble laget for 3 timer og 3 minutter siden, klokken 05:26 UTC
Varsel gyldig fra 22. klokken 06 UTC til 22. klokken 14 UTC
Vind 5 kt fra Øst-sørøst
Sikt 10 km eller mer
Overskyet i en høyde av 2500 ft
Midlertidig
fra 22. klokken 06 UTC til 22. klokken 12 UTC
Sikt: 2500 m
lett snø

TAF: EFHA 220526Z 2206/2214 11005KT 9999 OVC025 TEMPO 2206/2212 2500 -SN

Værobservasjoner og værvarsel for over 4000 flyplasser (METAR- og TAF-rapporter).

Tilgjengelige stasjoner er representert av de røde og gule prikkene på kartet.

Hold musepekeren over prikken for å se navnet på stasjonen.

Klikk så for å se værobservasjoner og -varsler.

For å forandre kartet kan du klikke på den grønne knappen med svart kryss for å zoome inn, på den grønne knappen med strek for å zoome ut, eller på de grønne pilene for å se tilstøtende kart.


METAR-TAF: